This is the latest recevied weather packets stored in our database for station/object EB1TR-13. If no packets are shown the sender has not sent any weather packets the latest 10 day(s).
| Time | Temp. | Humidity | Pressure | Rain* | Wind** | Luminosity | Snow |
|---|---|---|---|---|---|---|---|
| 1787998389 | 23.33° C | 67% | 1018 hPa | 0 mm | - | 0 W/m² | - |
| 1787997489 | 24.44° C | 55% | 1018 hPa | 0 mm | - | 0 W/m² | - |
| 1787996589 | 20° C | 79% | 1018 hPa | 0 mm | - | 0 W/m² | - |
| 1787995689 | 19.44° C | 81% | 1018 hPa | 0 mm | - | 0 W/m² | - |
| 1787994789 | 19.44° C | 76% | 1018 hPa | 0 mm | - | 0 W/m² | - |
| 1787993889 | 19.44° C | 76% | 1018 hPa | 0 mm | - | 0 W/m² | - |
| 1787992989 | 18.33° C | 81% | 1018 hPa | 0 mm | - | 0 W/m² | - |
| 1787992089 | 18.33° C | 82% | 1018 hPa | 0 mm | - | 0 W/m² | - |
| 1787991189 | 17.78° C | 83% | 1018 hPa | 0 mm | - | 0 W/m² | - |
| 1787990289 | 17.78° C | 83% | 1018 hPa | 0 mm | - | 0 W/m² | - |
| 1787989389 | 16.67° C | 92% | 1018 hPa | 0 mm | - | 0 W/m² | - |
| 1787988489 | 16.67° C | 92% | 1018 hPa | 0 mm | - | 0 W/m² | - |
| 1787987589 | 16.11° C | 91% | 1018 hPa | 0 mm | - | 0 W/m² | - |
| 1787986689 | 16.11° C | 91% | 1018 hPa | 0 mm | - | 0 W/m² | - |
| 1787985789 | 15.56° C | 92% | 1018 hPa | 0 mm | - | 0 W/m² | - |
| 1787984889 | 14.44° C | 96% | 1018 hPa | 0 mm | - | 0 W/m² | - |
| 1787983989 | 14.44° C | 96% | 1018 hPa | 0 mm | - | 0 W/m² | - |
| 1787983089 | 14.44° C | 96% | 1018 hPa | 0 mm | - | 0 W/m² | - |
| 1787982189 | 14.44° C | 96% | 1018 hPa | 0 mm | - | 0 W/m² | - |
| 1787981289 | 14.44° C | 96% | 1018 hPa | 0 mm | - | 0 W/m² | - |
| 1787980389 | 14.44° C | 96% | 1018 hPa | 0 mm | - | 0 W/m² | - |
| 1787979488 | 14.44° C | 96% | 1018 hPa | 0 mm | - | 0 W/m² | - |
| 1787978588 | 14.44° C | 95% | 1018 hPa | 0 mm | - | 0 W/m² | - |
| 1787977689 | 15° C | 94% | 1018 hPa | 0 mm | - | 0 W/m² | - |
| 1787976789 | 15° C | 94% | 1018 hPa | 0 mm | - | 0 W/m² | - |
* Rain latest hour (hover to see other rain measurements)
** Current wind speed in m/s (hover to see current wind gust speed)